createdAt,value
2018-05-14T00:00:09.330Z,0.00
2018-05-14T00:01:09.380Z,0.00
2018-05-14T00:02:09.423Z,0.00
2018-05-14T00:03:09.499Z,0.00
2018-05-14T00:04:09.542Z,0.00
2018-05-14T00:05:09.565Z,0.00
2018-05-14T00:06:09.615Z,0.00
2018-05-14T00:07:09.661Z,0.00
2018-05-14T00:08:09.712Z,0.00
2018-05-14T00:09:09.794Z,0.00
2018-05-14T00:10:09.804Z,0.00
2018-05-14T00:11:09.859Z,0.00
2018-05-14T00:12:09.906Z,0.00
2018-05-14T00:13:09.947Z,0.00
2018-05-14T00:14:10.028Z,0.00
2018-05-14T00:15:10.042Z,0.00
2018-05-14T00:16:10.089Z,0.00
2018-05-14T00:17:10.141Z,0.00
2018-05-14T00:18:10.185Z,0.00
2018-05-14T00:19:10.259Z,0.00
2018-05-14T00:20:10.316Z,0.00
2018-05-14T00:21:10.325Z,0.00
2018-05-14T00:22:10.379Z,0.00
2018-05-14T00:23:10.422Z,0.00
2018-05-14T00:24:10.470Z,0.00
2018-05-14T00:25:10.541Z,0.00
2018-05-14T00:26:10.601Z,0.00
2018-05-14T00:27:10.617Z,0.00
2018-05-14T00:28:10.663Z,0.00
2018-05-14T00:29:10.707Z,0.00
2018-05-14T00:30:10.756Z,0.00
2018-05-14T00:31:10.829Z,0.00
2018-05-14T00:32:10.850Z,0.00
2018-05-14T00:33:10.913Z,0.00
2018-05-14T00:34:10.950Z,0.00
2018-05-14T00:35:10.995Z,0.00
2018-05-14T00:36:11.067Z,0.00
2018-05-14T00:37:12.031Z,0.00
2018-05-14T00:38:11.135Z,0.00
2018-05-14T00:39:11.186Z,0.00
2018-05-14T00:40:11.230Z,0.00
2018-05-14T00:41:11.304Z,0.00
2018-05-14T00:42:11.348Z,0.00
2018-05-14T00:43:11.371Z,0.00
2018-05-14T00:44:11.421Z,0.00
2018-05-14T00:45:11.469Z,0.00
2018-05-14T00:46:11.540Z,0.00
2018-05-14T00:47:11.565Z,0.00
2018-05-14T00:48:11.611Z,0.00
2018-05-14T00:49:11.656Z,0.00
2018-05-14T00:50:11.711Z,0.00
2018-05-14T00:51:11.784Z,0.00
2018-05-14T00:52:11.803Z,0.00
2018-05-14T00:53:11.846Z,0.00
2018-05-14T00:54:11.894Z,0.00
2018-05-14T00:55:11.945Z,0.00
2018-05-14T00:56:12.015Z,0.00
2018-05-14T00:57:12.037Z,0.00
2018-05-14T00:58:12.108Z,0.00
2018-05-14T00:59:12.138Z,0.00
2018-05-14T01:00:12.182Z,0.00
2018-05-14T01:01:12.228Z,0.00
2018-05-14T01:02:12.300Z,0.00
2018-05-14T01:03:12.324Z,0.00
2018-05-14T01:04:12.371Z,0.00
2018-05-14T01:05:12.417Z,0.00
2018-05-14T01:06:12.465Z,0.00
2018-05-14T01:07:12.537Z,0.00
2018-05-14T01:08:12.591Z,0.00
2018-05-14T01:09:12.608Z,0.00
2018-05-14T01:10:12.654Z,0.00
2018-05-14T01:11:12.702Z,0.00
2018-05-14T01:12:12.749Z,0.00
2018-05-14T01:13:12.841Z,0.00
2018-05-14T01:14:12.844Z,0.00
2018-05-14T01:15:12.894Z,0.00
2018-05-14T01:16:12.950Z,0.00
2018-05-14T01:17:12.986Z,0.00
2018-05-14T01:18:13.074Z,0.00
2018-05-14T01:19:13.083Z,0.00
2018-05-14T01:20:13.132Z,0.00
2018-05-14T01:21:13.180Z,0.00
2018-05-14T01:22:13.227Z,0.00
2018-05-14T01:23:13.306Z,0.00
2018-05-14T01:24:13.321Z,0.00
2018-05-14T01:25:13.367Z,0.00
2018-05-14T01:26:13.418Z,0.00
2018-05-14T01:27:13.464Z,0.00
2018-05-14T01:28:13.616Z,0.00
2018-05-14T01:29:13.560Z,0.00
2018-05-14T01:30:13.607Z,0.00
2018-05-14T01:31:13.678Z,0.00
2018-05-14T01:32:13.700Z,0.00
2018-05-14T01:33:13.777Z,0.00
2018-05-14T01:34:13.795Z,0.00
2018-05-14T01:35:13.879Z,0.00
2018-05-14T01:36:13.892Z,0.00
2018-05-14T01:37:13.937Z,0.00
2018-05-14T01:38:13.988Z,0.00
2018-05-14T01:39:14.058Z,0.00
2018-05-14T01:40:14.111Z,0.00
2018-05-14T01:41:14.130Z,0.00
2018-05-14T01:42:14.176Z,0.00
2018-05-14T01:43:14.223Z,0.00
2018-05-14T01:44:14.313Z,0.00
2018-05-14T01:45:14.318Z,0.00
2018-05-14T01:46:14.372Z,0.00
2018-05-14T01:47:14.413Z,0.00
2018-05-14T01:48:14.463Z,0.00
2018-05-14T01:49:14.539Z,0.00
2018-05-14T01:50:14.558Z,0.00
2018-05-14T01:51:14.611Z,0.00
2018-05-14T01:52:14.653Z,0.00
2018-05-14T01:53:14.698Z,0.00
2018-05-14T01:54:14.776Z,0.00
2018-05-14T01:55:14.795Z,0.00
2018-05-14T01:56:14.846Z,0.00
2018-05-14T01:57:14.888Z,0.00
2018-05-14T01:58:14.939Z,0.00
2018-05-14T01:59:15.010Z,0.00
2018-05-14T02:00:15.057Z,0.00
2018-05-14T02:01:15.097Z,0.00
2018-05-14T02:02:15.130Z,0.00
2018-05-14T02:03:15.183Z,0.00
2018-05-14T02:04:15.222Z,0.00
2018-05-14T02:05:15.298Z,0.00
2018-05-14T02:06:15.320Z,0.00
2018-05-14T02:07:15.364Z,0.00
2018-05-14T02:08:15.411Z,0.00
2018-05-14T02:09:15.459Z,0.00
2018-05-14T02:10:15.539Z,0.00
2018-05-14T02:11:15.555Z,0.00
2018-05-14T02:12:15.605Z,0.00
2018-05-14T02:13:15.651Z,0.00
2018-05-14T02:14:15.699Z,0.00
2018-05-14T02:15:16.079Z,0.00
2018-05-14T02:16:15.795Z,0.00
2018-05-14T02:17:15.866Z,0.00
2018-05-14T02:18:15.896Z,0.00
2018-05-14T02:19:15.943Z,0.00
2018-05-14T02:20:16.010Z,0.00
2018-05-14T02:21:16.031Z,0.00
2018-05-14T02:22:16.113Z,0.00
2018-05-14T02:23:16.134Z,0.00
2018-05-14T02:24:16.174Z,0.00
2018-05-14T02:25:16.220Z,0.00
2018-05-14T02:26:16.269Z,0.00
2018-05-14T02:27:16.347Z,0.00
2018-05-14T02:28:16.363Z,0.00
2018-05-14T02:29:16.442Z,0.00
2018-05-14T02:30:16.459Z,0.00
2018-05-14T02:31:16.507Z,0.00
2018-05-14T02:32:16.599Z,0.00
2018-05-14T02:33:16.607Z,0.00
2018-05-14T02:34:16.652Z,0.00
2018-05-14T02:35:16.699Z,0.00
2018-05-14T02:36:16.744Z,0.00
2018-05-14T02:37:16.825Z,0.00
2018-05-14T02:38:16.840Z,0.00
2018-05-14T02:39:16.895Z,0.00
2018-05-14T02:40:16.935Z,0.00
2018-05-14T02:41:16.989Z,0.00
2018-05-14T02:42:17.062Z,0.00
2018-05-14T02:43:17.078Z,0.00
2018-05-14T02:44:17.124Z,0.00
2018-05-14T02:45:17.182Z,0.00
2018-05-14T02:46:17.221Z,0.00
2018-05-14T02:47:17.313Z,0.00
2018-05-14T02:48:17.318Z,0.00
2018-05-14T02:49:17.365Z,0.00
2018-05-14T02:50:17.409Z,0.00
2018-05-14T02:51:17.457Z,0.00
2018-05-14T02:52:17.538Z,0.00
2018-05-14T02:53:17.556Z,0.00
2018-05-14T02:54:17.600Z,0.00
2018-05-14T02:55:17.649Z,0.00
2018-05-14T02:56:17.696Z,0.00
2018-05-14T02:57:17.768Z,0.00
2018-05-14T02:58:17.789Z,0.00
2018-05-14T02:59:17.863Z,0.00
2018-05-14T03:00:17.886Z,0.00
2018-05-14T03:01:17.942Z,0.00
2018-05-14T03:02:17.979Z,0.00
2018-05-14T03:03:18.066Z,0.00
2018-05-14T03:04:18.076Z,0.00
2018-05-14T03:05:18.123Z,0.00
2018-05-14T03:06:18.173Z,0.00
2018-05-14T03:07:18.222Z,0.00
2018-05-14T03:08:18.293Z,0.00
2018-05-14T03:09:18.344Z,0.00
2018-05-14T03:10:18.395Z,0.00
2018-05-14T03:11:18.411Z,0.00
2018-05-14T03:12:18.457Z,0.00
2018-05-14T03:13:18.505Z,0.00
2018-05-14T03:14:18.574Z,0.00
2018-05-14T03:15:18.600Z,0.00
2018-05-14T03:16:18.653Z,0.00
2018-05-14T03:17:18.696Z,4.00
2018-05-14T03:18:18.742Z,4.00
2018-05-14T03:19:18.814Z,4.00
2018-05-14T03:20:18.839Z,4.00
2018-05-14T03:21:18.883Z,4.00
2018-05-14T03:22:18.931Z,4.00
2018-05-14T03:23:18.978Z,4.00
2018-05-14T03:24:19.057Z,8.00
2018-05-14T03:25:19.073Z,8.00
2018-05-14T03:26:19.152Z,12.00
2018-05-14T03:27:19.168Z,12.00
2018-05-14T03:28:19.217Z,12.00
2018-05-14T03:29:19.262Z,16.00
2018-05-14T03:30:19.309Z,20.00
2018-05-14T03:31:19.403Z,32.00
2018-05-14T03:32:19.407Z,36.00
2018-05-14T03:33:19.454Z,44.00
2018-05-14T03:34:19.500Z,48.00
2018-05-14T03:35:19.550Z,56.00
2018-05-14T03:36:19.635Z,60.00
2018-05-14T03:37:19.645Z,64.00
2018-05-14T03:38:19.689Z,68.00
2018-05-14T03:39:19.738Z,72.00
2018-05-14T03:40:19.784Z,80.00
2018-05-14T03:41:19.859Z,88.00
2018-05-14T03:42:19.880Z,108.00
2018-05-14T03:43:19.931Z,124.00
2018-05-14T03:44:19.975Z,152.00
2018-05-14T03:45:20.022Z,172.00
2018-05-14T03:46:20.092Z,192.00
2018-05-14T03:47:20.142Z,208.00
2018-05-14T03:48:20.166Z,220.00
2018-05-14T03:49:20.213Z,228.00
2018-05-14T03:50:20.260Z,236.00
2018-05-14T03:51:20.348Z,244.00
2018-05-14T03:52:20.358Z,264.00
2018-05-14T03:53:20.402Z,280.00
2018-05-14T03:54:20.452Z,304.00
2018-05-14T03:55:20.497Z,324.00
2018-05-14T03:56:20.569Z,352.00
2018-05-14T03:57:20.624Z,392.00
2018-05-14T03:58:20.638Z,424.00
2018-05-14T03:59:20.686Z,432.00
2018-05-14T04:00:20.734Z,432.00
2018-05-14T04:01:20.792Z,436.00
2018-05-14T04:02:20.895Z,424.00
2018-05-14T04:03:20.903Z,424.00
2018-05-14T04:04:20.928Z,452.00
2018-05-14T04:05:20.971Z,500.00
2018-05-14T04:06:21.022Z,544.00
2018-05-14T04:07:21.067Z,588.00
2018-05-14T04:08:21.204Z,612.00
2018-05-14T04:09:21.162Z,616.00
2018-05-14T04:10:21.212Z,620.00
2018-05-14T04:11:21.258Z,660.00
2018-05-14T04:12:21.305Z,692.00
2018-05-14T04:13:21.376Z,692.00
2018-05-14T04:14:21.398Z,656.00
2018-05-14T04:15:21.449Z,624.00
2018-05-14T04:16:21.500Z,624.00
2018-05-14T04:17:21.542Z,640.00
2018-05-14T04:18:21.619Z,660.00
2018-05-14T04:19:21.636Z,676.00
2018-05-14T04:20:21.683Z,732.00
2018-05-14T04:21:21.733Z,804.00
2018-05-14T04:22:21.778Z,896.00
2018-05-14T04:23:21.849Z,996.00
2018-05-14T04:24:21.899Z,1084.00
2018-05-14T04:25:21.928Z,1140.00
2018-05-14T04:26:21.970Z,1160.00
2018-05-14T04:27:22.015Z,1168.00
2018-05-14T04:28:22.097Z,1172.00
2018-05-14T04:29:22.111Z,1172.00
2018-05-14T04:30:22.214Z,1192.00
2018-05-14T04:31:22.212Z,1240.00
2018-05-14T04:32:22.253Z,1324.00
2018-05-14T04:33:22.330Z,1424.00
2018-05-14T04:34:22.351Z,1540.00
2018-05-14T04:35:22.396Z,1648.00
2018-05-14T04:36:22.445Z,1740.00
2018-05-14T04:37:22.574Z,1832.00
2018-05-14T04:38:22.563Z,1940.00
2018-05-14T04:39:22.608Z,2048.00
2018-05-14T04:40:22.636Z,2184.00
2018-05-14T04:41:22.686Z,2356.00
2018-05-14T04:42:22.734Z,2472.00
2018-05-14T04:43:22.775Z,2484.00
2018-05-14T04:44:22.855Z,2468.00
2018-05-14T04:45:22.872Z,2552.00
2018-05-14T04:46:22.925Z,2764.00
2018-05-14T04:47:22.966Z,3060.00
2018-05-14T04:48:23.015Z,3376.00
2018-05-14T04:49:23.096Z,3492.00
2018-05-14T04:50:23.111Z,3452.00
2018-05-14T04:51:23.156Z,3444.00
2018-05-14T04:52:23.202Z,3568.00
2018-05-14T04:53:23.251Z,3912.00
2018-05-14T04:54:23.339Z,4348.00
2018-05-14T04:55:23.348Z,4456.00
2018-05-14T04:56:23.394Z,4388.00
2018-05-14T04:57:23.440Z,4348.00
2018-05-14T04:58:23.492Z,4144.00
2018-05-14T04:59:23.561Z,3972.00
2018-05-14T05:00:23.607Z,3592.00
2018-05-14T05:01:23.636Z,3652.00
2018-05-14T05:02:23.701Z,3952.00
2018-05-14T05:03:23.726Z,4312.00
2018-05-14T05:04:23.773Z,4376.00
2018-05-14T05:05:23.845Z,4008.00
2018-05-14T05:06:23.871Z,3740.00
2018-05-14T05:07:23.917Z,3392.00
2018-05-14T05:08:23.965Z,2912.00
2018-05-14T05:09:24.011Z,2820.00
2018-05-14T05:10:24.098Z,3256.00
2018-05-14T05:11:24.206Z,3744.00
2018-05-14T05:12:24.156Z,4172.00
2018-05-14T05:13:24.201Z,4408.00
2018-05-14T05:14:24.255Z,4488.00
2018-05-14T05:15:24.324Z,4508.00
2018-05-14T05:16:24.369Z,4808.00
2018-05-14T05:17:24.392Z,5072.00
2018-05-14T05:18:24.440Z,4728.00
2018-05-14T05:19:24.490Z,4432.00
2018-05-14T05:20:24.540Z,3932.00
2018-05-14T05:21:24.614Z,3840.00
2018-05-14T05:22:24.640Z,4288.00
2018-05-14T05:23:24.679Z,4364.00
2018-05-14T05:24:24.725Z,4220.00
2018-05-14T05:25:24.771Z,4460.00
2018-05-14T05:26:24.862Z,4968.00
2018-05-14T05:27:24.869Z,5108.00
2018-05-14T05:28:24.987Z,5200.00
2018-05-14T05:29:24.965Z,5564.00
2018-05-14T05:30:25.013Z,6040.00
2018-05-14T05:31:25.095Z,6156.00
2018-05-14T05:32:25.107Z,5836.00
2018-05-14T05:33:25.153Z,5088.00
2018-05-14T05:34:25.284Z,4332.00
2018-05-14T05:35:25.312Z,3892.00
2018-05-14T05:36:25.328Z,3852.00
2018-05-14T05:37:25.353Z,4076.00
2018-05-14T05:38:25.392Z,4120.00
2018-05-14T05:39:25.448Z,4088.00
2018-05-14T05:40:25.488Z,4244.00
2018-05-14T05:41:25.558Z,4416.00
2018-05-14T05:42:25.608Z,4588.00
2018-05-14T05:43:25.632Z,4904.00
2018-05-14T05:44:25.684Z,5476.00
2018-05-14T05:45:25.796Z,6124.00
2018-05-14T05:46:25.774Z,6256.00
2018-05-14T05:47:25.855Z,6272.00
2018-05-14T05:48:25.873Z,6344.00
2018-05-14T05:49:25.919Z,6440.00
2018-05-14T05:50:25.965Z,6736.00
2018-05-14T05:51:26.019Z,7164.00
2018-05-14T05:52:26.085Z,6980.00
2018-05-14T05:53:26.121Z,6420.00
2018-05-14T05:54:26.157Z,5856.00
2018-05-14T05:55:26.203Z,5308.00
2018-05-14T05:56:26.251Z,4816.00
2018-05-14T05:57:26.327Z,4552.00
2018-05-14T05:58:26.347Z,4560.00
2018-05-14T05:59:26.396Z,4932.00
2018-05-14T06:00:26.443Z,5616.00
2018-05-14T06:01:26.490Z,6256.00
2018-05-14T06:02:26.571Z,6588.00
2018-05-14T06:03:26.586Z,6552.00
2018-05-14T06:04:26.636Z,6424.00
2018-05-14T06:05:26.682Z,6244.00
2018-05-14T06:06:26.728Z,5888.00
2018-05-14T06:07:26.798Z,5860.00
2018-05-14T06:08:26.858Z,6256.00
2018-05-14T06:09:26.883Z,6564.00
2018-05-14T06:10:26.923Z,6516.00
2018-05-14T06:11:26.968Z,6324.00
2018-05-14T06:12:27.015Z,6304.00
2018-05-14T06:13:27.104Z,6416.00
2018-05-14T06:14:27.111Z,6620.00
2018-05-14T06:15:27.183Z,6948.00
2018-05-14T06:16:27.208Z,7300.00
2018-05-14T06:17:27.255Z,7544.00
2018-05-14T06:18:27.333Z,7716.00
2018-05-14T06:19:27.375Z,7760.00
2018-05-14T06:20:27.398Z,7480.00
2018-05-14T06:21:27.445Z,7164.00
2018-05-14T06:22:27.571Z,7008.00
2018-05-14T06:23:27.571Z,6948.00
2018-05-14T06:24:27.613Z,6840.00
2018-05-14T06:25:27.636Z,6700.00
2018-05-14T06:26:27.687Z,6668.00
2018-05-14T06:27:27.735Z,6940.00
2018-05-14T06:28:27.780Z,7268.00
2018-05-14T06:29:27.854Z,7440.00
2018-05-14T06:30:27.878Z,7568.00
2018-05-14T06:31:27.927Z,7784.00
2018-05-14T06:32:27.971Z,8032.00
2018-05-14T06:33:28.020Z,8196.00
2018-05-14T06:34:28.090Z,8164.00
2018-05-14T06:35:28.188Z,7952.00
2018-05-14T06:36:28.161Z,7720.00
2018-05-14T06:37:28.214Z,7620.00
2018-05-14T06:38:28.259Z,7780.00
2018-05-14T06:39:28.308Z,8108.00
2018-05-14T06:40:28.385Z,8100.00
2018-05-14T06:41:28.405Z,7652.00
2018-05-14T06:42:28.449Z,7300.00
2018-05-14T06:43:28.500Z,7300.00
2018-05-14T06:44:28.595Z,7400.00
2018-05-14T06:45:28.633Z,7340.00
2018-05-14T06:46:28.642Z,7128.00
2018-05-14T06:47:28.698Z,6896.00
2018-05-14T06:48:28.741Z,6668.00
2018-05-14T06:49:28.986Z,6448.00
2018-05-14T06:50:28.963Z,6264.00
2018-05-14T06:51:28.881Z,6032.00
2018-05-14T06:52:28.930Z,5776.00
2018-05-14T06:53:28.984Z,5684.00
2018-05-14T06:54:29.026Z,5936.00
2018-05-14T06:55:29.097Z,6408.00
2018-05-14T06:56:29.148Z,6872.00
2018-05-14T06:57:29.176Z,7292.00
2018-05-14T06:58:29.217Z,7760.00
2018-05-14T06:59:29.281Z,7956.00
2018-05-14T07:00:29.335Z,7780.00
2018-05-14T07:01:29.404Z,7472.00
2018-05-14T07:02:29.414Z,7072.00
2018-05-14T07:03:29.456Z,6524.00
2018-05-14T07:04:29.507Z,6388.00
2018-05-14T07:05:29.554Z,6780.00
2018-05-14T07:06:29.636Z,7436.00
2018-05-14T07:07:29.646Z,8332.00
2018-05-14T07:08:29.695Z,9260.00
2018-05-14T07:09:29.746Z,10188.00
2018-05-14T07:10:29.791Z,11356.00
2018-05-14T07:11:29.885Z,12932.00
2018-05-14T07:12:29.887Z,13760.00
2018-05-14T07:13:29.933Z,13804.00
2018-05-14T07:14:29.984Z,13808.00
2018-05-14T07:15:30.031Z,13348.00
2018-05-14T07:16:30.105Z,12020.00
2018-05-14T07:17:30.173Z,10892.00
2018-05-14T07:18:30.173Z,10768.00
2018-05-14T07:19:30.226Z,11284.00
2018-05-14T07:20:30.271Z,12236.00
2018-05-14T07:21:30.319Z,13160.00
2018-05-14T07:22:30.389Z,13644.00
2018-05-14T07:23:30.414Z,13444.00
2018-05-14T07:24:30.464Z,12360.00
2018-05-14T07:25:30.747Z,11540.00
2018-05-14T07:26:30.560Z,11328.00
2018-05-14T07:27:30.631Z,11364.00
2018-05-14T07:28:30.682Z,11676.00
2018-05-14T07:29:30.701Z,12324.00
2018-05-14T07:30:30.753Z,13456.00
2018-05-14T07:31:30.803Z,14976.00
2018-05-14T07:32:30.855Z,16788.00
2018-05-14T07:33:30.919Z,19040.00
2018-05-14T07:34:30.944Z,20832.00
2018-05-14T07:35:30.992Z,21248.00
2018-05-14T07:36:31.040Z,20000.00
2018-05-14T07:37:31.086Z,20512.00
2018-05-14T07:38:31.168Z,21088.00
2018-05-14T07:39:31.187Z,20064.00
2018-05-14T07:40:31.247Z,17316.00
2018-05-14T07:41:31.280Z,15800.00
2018-05-14T07:42:31.327Z,15792.00
2018-05-14T07:43:31.412Z,16328.00
2018-05-14T07:44:31.427Z,17020.00
2018-05-14T07:45:31.474Z,17952.00
2018-05-14T07:46:31.524Z,18176.00
2018-05-14T07:47:31.574Z,18080.00
2018-05-14T07:48:31.664Z,19424.00
2018-05-14T07:49:31.671Z,21376.00
2018-05-14T07:50:31.715Z,22176.00
2018-05-14T07:51:31.764Z,20960.00
2018-05-14T07:52:31.813Z,18304.00
2018-05-14T07:53:31.894Z,15580.00
2018-05-14T07:54:31.914Z,14004.00
2018-05-14T07:55:31.958Z,13260.00
2018-05-14T07:56:32.009Z,12816.00
2018-05-14T07:57:32.057Z,12652.00
2018-05-14T07:58:32.128Z,12992.00
2018-05-14T07:59:32.178Z,13812.00
2018-05-14T08:00:32.201Z,14936.00
2018-05-14T08:01:32.257Z,16116.00
2018-05-14T08:02:32.301Z,17580.00
2018-05-14T08:03:32.346Z,18752.00
2018-05-14T08:04:32.419Z,19328.00
2018-05-14T08:05:32.473Z,20096.00
2018-05-14T08:06:32.492Z,19712.00
2018-05-14T08:07:32.541Z,20640.00
2018-05-14T08:08:32.592Z,21696.00
2018-05-14T08:09:32.641Z,21728.00
2018-05-14T08:10:32.713Z,20256.00
2018-05-14T08:11:32.738Z,19648.00
2018-05-14T08:12:32.785Z,20384.00
2018-05-14T08:13:32.831Z,21152.00
2018-05-14T08:14:32.886Z,21024.00
2018-05-14T08:15:32.953Z,21632.00
2018-05-14T08:16:33.003Z,23008.00
2018-05-14T08:17:33.028Z,23360.00
2018-05-14T08:18:33.080Z,22112.00
2018-05-14T08:19:33.127Z,21216.00
2018-05-14T08:20:33.178Z,20800.00
2018-05-14T08:21:33.245Z,19328.00
2018-05-14T08:22:33.272Z,17760.00
2018-05-14T08:23:33.326Z,17448.00
2018-05-14T08:24:33.372Z,18688.00
2018-05-14T08:25:33.418Z,18592.00
2018-05-14T08:26:33.489Z,17696.00
2018-05-14T08:27:34.093Z,17520.00
2018-05-14T08:28:33.565Z,18688.00
2018-05-14T08:29:33.616Z,18624.00
2018-05-14T08:30:33.664Z,16668.00
2018-05-14T08:31:33.738Z,14968.00
2018-05-14T08:32:33.759Z,13128.00
2018-05-14T08:33:33.807Z,13480.00
2018-05-14T08:34:33.862Z,13712.00
2018-05-14T08:35:33.907Z,12912.00
2018-05-14T08:36:33.984Z,12492.00
2018-05-14T08:37:34.004Z,12316.00
2018-05-14T08:38:34.054Z,12684.00
2018-05-14T08:39:34.102Z,13644.00
2018-05-14T08:40:34.153Z,15336.00
2018-05-14T08:41:34.229Z,16624.00
2018-05-14T08:42:34.249Z,16916.00
2018-05-14T08:43:34.297Z,17672.00
2018-05-14T08:44:34.344Z,18592.00
2018-05-14T08:45:34.395Z,18720.00
2018-05-14T08:46:34.467Z,17148.00
2018-05-14T08:47:34.490Z,16916.00
2018-05-14T08:48:34.565Z,18496.00
2018-05-14T08:49:34.590Z,20288.00
2018-05-14T08:50:34.640Z,20960.00
2018-05-14T08:51:34.686Z,20640.00
2018-05-14T08:52:34.737Z,21568.00
2018-05-14T08:53:34.806Z,22240.00
2018-05-14T08:54:34.867Z,21792.00
2018-05-14T08:55:34.886Z,18880.00
2018-05-14T08:56:34.930Z,17472.00
2018-05-14T08:57:35.022Z,18720.00
2018-05-14T08:58:35.029Z,19872.00
2018-05-14T08:59:35.076Z,19776.00
2018-05-14T09:00:35.125Z,18176.00
2018-05-14T09:01:35.175Z,16800.00
2018-05-14T09:02:35.248Z,16728.00
2018-05-14T09:03:35.298Z,17604.00
2018-05-14T09:04:35.324Z,19232.00
2018-05-14T09:05:35.368Z,19136.00
2018-05-14T09:06:35.419Z,18912.00
2018-05-14T09:07:35.471Z,20608.00
2018-05-14T09:08:35.547Z,22848.00
2018-05-14T09:09:35.563Z,24032.00
2018-05-14T09:10:35.615Z,24864.00
2018-05-14T09:11:35.665Z,23840.00
2018-05-14T09:12:35.712Z,22016.00
2018-05-14T09:13:35.782Z,21344.00
2018-05-14T09:14:35.808Z,21408.00
2018-05-14T09:15:35.857Z,22016.00
2018-05-14T09:16:35.909Z,22336.00
2018-05-14T09:17:35.954Z,21920.00
2018-05-14T09:18:36.027Z,21120.00
2018-05-14T09:19:36.258Z,20928.00
2018-05-14T09:20:36.126Z,21792.00
2018-05-14T09:21:36.151Z,21504.00
2018-05-14T09:22:36.201Z,20832.00
2018-05-14T09:23:36.248Z,19552.00
2018-05-14T09:24:36.365Z,17620.00
2018-05-14T09:25:36.456Z,17252.00
2018-05-14T09:26:36.396Z,16296.00
2018-05-14T09:27:36.444Z,14856.00
2018-05-14T09:28:36.492Z,14112.00
2018-05-14T09:29:36.543Z,14088.00
2018-05-14T09:30:36.629Z,13760.00
2018-05-14T09:31:36.640Z,12596.00
2018-05-14T09:32:36.695Z,11140.00
2018-05-14T09:33:36.737Z,10576.00
2018-05-14T09:34:36.787Z,11092.00
2018-05-14T09:35:36.858Z,12532.00
2018-05-14T09:36:36.888Z,13260.00
2018-05-14T09:37:36.958Z,13656.00
2018-05-14T09:38:36.982Z,13176.00
2018-05-14T09:39:37.033Z,12260.00
2018-05-14T09:40:37.082Z,11104.00
2018-05-14T09:41:37.128Z,11208.00
2018-05-14T09:42:37.216Z,12228.00
2018-05-14T09:43:37.231Z,14308.00
2018-05-14T09:44:37.338Z,15952.00
2018-05-14T09:45:37.323Z,15120.00
2018-05-14T09:46:37.372Z,14384.00
2018-05-14T09:47:37.448Z,14772.00
2018-05-14T09:48:37.471Z,15708.00
2018-05-14T09:49:37.518Z,15972.00
2018-05-14T09:50:37.570Z,15708.00
2018-05-14T09:51:37.616Z,14840.00
2018-05-14T09:52:37.696Z,14264.00
2018-05-14T09:53:37.743Z,14560.00
2018-05-14T09:54:37.762Z,14984.00
2018-05-14T09:55:37.813Z,15016.00
2018-05-14T09:56:37.862Z,15000.00
2018-05-14T09:57:37.953Z,15288.00
2018-05-14T09:58:37.960Z,16264.00
2018-05-14T09:59:38.009Z,17592.00
2018-05-14T10:00:38.061Z,18112.00
2018-05-14T10:01:38.102Z,17952.00
2018-05-14T10:02:38.184Z,18144.00
2018-05-14T10:03:38.201Z,17228.00
2018-05-14T10:04:38.281Z,17104.00
2018-05-14T10:05:38.297Z,17672.00
2018-05-14T10:06:38.346Z,18048.00
2018-05-14T10:07:38.399Z,17488.00
2018-05-14T10:08:38.445Z,15924.00
2018-05-14T10:09:38.525Z,15712.00
2018-05-14T10:10:38.545Z,15852.00
2018-05-14T10:11:38.592Z,15776.00
2018-05-14T10:12:38.643Z,15388.00
2018-05-14T10:13:38.714Z,15780.00
2018-05-14T10:14:38.736Z,16776.00
2018-05-14T10:15:38.895Z,16052.00
2018-05-14T10:16:38.836Z,14992.00
2018-05-14T10:17:38.884Z,15100.00
2018-05-14T10:18:38.987Z,15376.00
2018-05-14T10:19:38.988Z,15128.00
2018-05-14T10:20:39.057Z,15184.00
2018-05-14T10:21:39.079Z,14864.00
2018-05-14T10:22:39.129Z,14560.00
2018-05-14T10:23:39.178Z,14572.00
2018-05-14T10:24:39.288Z,14376.00
2018-05-14T10:25:39.273Z,14204.00
2018-05-14T10:26:39.323Z,14632.00
2018-05-14T10:27:39.369Z,15416.00
2018-05-14T10:28:39.421Z,15448.00
2018-05-14T10:29:39.492Z,15704.00
2018-05-14T10:30:39.519Z,16364.00
2018-05-14T10:31:39.591Z,16808.00
2018-05-14T10:32:39.618Z,17460.00
2018-05-14T10:33:39.663Z,18560.00
2018-05-14T10:34:39.744Z,19232.00
2018-05-14T10:35:39.760Z,19584.00
2018-05-14T10:36:39.813Z,20160.00
2018-05-14T10:37:39.859Z,21312.00
2018-05-14T10:38:39.912Z,22496.00
2018-05-14T10:39:39.989Z,23424.00
2018-05-14T10:40:40.060Z,24352.00
2018-05-14T10:41:40.058Z,25728.00
2018-05-14T10:42:40.109Z,27616.00
2018-05-14T10:43:40.151Z,29440.00
2018-05-14T10:44:40.227Z,26784.00
2018-05-14T10:45:40.251Z,24160.00
2018-05-14T10:46:40.315Z,22720.00
2018-05-14T10:47:40.348Z,20768.00
2018-05-14T10:48:40.428Z,20480.00
2018-05-14T10:49:40.446Z,22464.00
2018-05-14T10:50:40.519Z,25408.00
2018-05-14T10:51:40.564Z,27264.00
2018-05-14T10:52:40.593Z,26592.00
2018-05-14T10:53:40.646Z,27072.00
2018-05-14T10:54:40.713Z,26944.00
2018-05-14T10:55:40.763Z,26080.00
2018-05-14T10:56:40.793Z,25440.00
2018-05-14T10:57:40.842Z,26016.00
2018-05-14T10:58:40.957Z,27936.00
2018-05-14T10:59:40.938Z,28608.00
2018-05-14T11:00:41.010Z,26720.00
2018-05-14T11:01:41.033Z,25376.00
2018-05-14T11:02:41.086Z,26208.00
2018-05-14T11:03:41.136Z,28928.00
2018-05-14T11:04:41.185Z,31936.00
2018-05-14T11:05:41.254Z,28864.00
2018-05-14T11:06:41.304Z,27680.00
2018-05-14T11:07:41.331Z,30624.00
2018-05-14T11:08:41.379Z,35008.00
2018-05-14T11:09:41.426Z,34240.00
2018-05-14T11:10:41.520Z,31328.00
2018-05-14T11:11:41.524Z,30080.00
2018-05-14T11:12:41.582Z,28928.00
2018-05-14T11:13:41.626Z,27872.00
2018-05-14T11:14:41.674Z,27584.00
2018-05-14T11:15:41.757Z,29216.00
2018-05-14T11:16:41.777Z,29664.00
2018-05-14T11:17:41.822Z,27872.00
2018-05-14T11:18:41.884Z,24928.00
2018-05-14T11:19:41.920Z,22080.00
2018-05-14T11:20:41.997Z,19360.00
2018-05-14T11:21:42.025Z,17432.00
2018-05-14T11:22:42.097Z,17856.00
2018-05-14T11:23:42.127Z,20032.00
2018-05-14T11:24:42.168Z,22592.00
2018-05-14T11:25:42.217Z,24928.00
2018-05-14T11:26:42.294Z,26048.00
2018-05-14T11:27:42.322Z,25632.00
2018-05-14T11:28:42.368Z,24864.00
2018-05-14T11:29:42.421Z,24128.00
2018-05-14T11:30:42.464Z,22720.00
2018-05-14T11:31:42.546Z,21472.00
2018-05-14T11:32:42.568Z,20832.00
2018-05-14T11:33:42.610Z,20544.00
2018-05-14T11:34:42.662Z,20512.00
2018-05-14T11:35:42.711Z,20128.00
2018-05-14T11:36:42.784Z,19968.00
2018-05-14T11:37:42.811Z,20352.00
2018-05-14T11:38:42.884Z,20736.00
2018-05-14T11:39:42.913Z,20992.00
2018-05-14T11:40:42.960Z,21184.00
2018-05-14T11:41:43.005Z,21056.00
2018-05-14T11:42:43.061Z,20736.00
2018-05-14T11:43:43.138Z,21472.00
2018-05-14T11:44:43.155Z,22176.00
2018-05-14T11:45:43.205Z,22880.00
2018-05-14T11:46:43.255Z,23456.00
2018-05-14T11:47:43.306Z,23168.00
2018-05-14T11:48:43.380Z,22016.00
2018-05-14T11:49:43.406Z,20704.00
2018-05-14T11:50:43.507Z,19520.00
2018-05-14T11:51:43.501Z,18528.00
2018-05-14T11:52:43.575Z,18272.00
2018-05-14T11:53:43.625Z,18272.00
2018-05-14T11:54:43.649Z,18272.00
2018-05-14T11:55:43.700Z,17784.00
2018-05-14T11:56:43.808Z,17240.00
2018-05-14T11:57:43.795Z,16908.00
2018-05-14T11:58:43.881Z,16568.00
2018-05-14T11:59:43.896Z,16120.00
2018-05-14T12:00:43.944Z,16008.00
2018-05-14T12:01:43.993Z,16316.00
2018-05-14T12:02:44.063Z,16492.00
2018-05-14T12:03:44.135Z,16636.00
2018-05-14T12:04:44.144Z,16784.00
2018-05-14T12:05:44.196Z,17132.00
2018-05-14T12:06:44.241Z,17720.00
2018-05-14T12:07:44.308Z,18304.00
2018-05-14T12:08:44.374Z,18624.00
2018-05-14T12:09:44.387Z,18688.00
2018-05-14T12:10:44.440Z,18528.00
2018-05-14T12:11:44.486Z,18272.00
2018-05-14T12:12:44.538Z,17952.00
2018-05-14T12:13:44.610Z,17532.00
2018-05-14T12:14:44.634Z,17328.00
2018-05-14T12:15:44.684Z,17176.00
2018-05-14T12:16:44.733Z,16740.00
2018-05-14T12:17:44.780Z,16284.00